sensor_id;sensor_type;location;lat;lon;timestamp;temperature;humidity
13673;DHT22;6909;52.202;9.876;2024-03-22T00:00:47;8.50;1.00
13673;DHT22;6909;52.202;9.876;2024-03-22T00:03:12;8.50;1.00
13673;DHT22;6909;52.202;9.876;2024-03-22T00:05:39;8.60;1.00
13673;DHT22;6909;52.202;9.876;2024-03-22T00:08:05;8.60;1.00
13673;DHT22;6909;52.202;9.876;2024-03-22T00:10:32;8.60;1.00
13673;DHT22;6909;52.202;9.876;2024-03-22T00:12:59;8.60;1.00
13673;DHT22;6909;52.202;9.876;2024-03-22T00:15:25;8.70;1.00
13673;DHT22;6909;52.202;9.876;2024-03-22T00:17:51;8.70;1.00
13673;DHT22;6909;52.202;9.876;2024-03-22T00:20:18;8.70;1.00
13673;DHT22;6909;52.202;9.876;2024-03-22T00:22:43;8.80;1.00
13673;DHT22;6909;52.202;9.876;2024-03-22T00:25:10;8.80;1.00
13673;DHT22;6909;52.202;9.876;2024-03-22T00:27:36;8.80;1.00
13673;DHT22;6909;52.202;9.876;2024-03-22T00:30:05;8.80;1.00
13673;DHT22;6909;52.202;9.876;2024-03-22T00:32:31;8.80;53.50
13673;DHT22;6909;52.202;9.876;2024-03-22T00:34:58;8.80;99.90
13673;DHT22;6909;52.202;9.876;2024-03-22T00:37:23;8.80;99.90
13673;DHT22;6909;52.202;9.876;2024-03-22T00:39:50;8.80;99.90
13673;DHT22;6909;52.202;9.876;2024-03-22T00:42:16;8.80;52.10
13673;DHT22;6909;52.202;9.876;2024-03-22T00:44:42;8.80;54.00
13673;DHT22;6909;52.202;9.876;2024-03-22T00:47:09;8.80;99.90
13673;DHT22;6909;52.202;9.876;2024-03-22T00:49:36;8.80;99.90
13673;DHT22;6909;52.202;9.876;2024-03-22T00:52:02;8.90;99.90
13673;DHT22;6909;52.202;9.876;2024-03-22T00:54:28;8.90;1.00
13673;DHT22;6909;52.202;9.876;2024-03-22T00:56:54;8.90;1.00
13673;DHT22;6909;52.202;9.876;2024-03-22T00:59:21;9.00;1.00
13673;DHT22;6909;52.202;9.876;2024-03-22T01:01:47;9.00;1.00
13673;DHT22;6909;52.202;9.876;2024-03-22T01:04:15;9.00;99.90
13673;DHT22;6909;52.202;9.876;2024-03-22T01:06:41;9.10;99.90
13673;DHT22;6909;52.202;9.876;2024-03-22T01:09:07;9.10;60.80
13673;DHT22;6909;52.202;9.876;2024-03-22T01:11:33;9.10;1.00
13673;DHT22;6909;52.202;9.876;2024-03-22T01:14:00;9.20;1.00
13673;DHT22;6909;52.202;9.876;2024-03-22T01:16:26;9.20;1.00
13673;DHT22;6909;52.202;9.876;2024-03-22T01:18:52;9.20;1.00
13673;DHT22;6909;52.202;9.876;2024-03-22T01:21:19;9.30;99.90
13673;DHT22;6909;52.202;9.876;2024-03-22T01:23:50;9.20;99.90
13673;DHT22;6909;52.202;9.876;2024-03-22T01:26:16;9.30;99.90
13673;DHT22;6909;52.202;9.876;2024-03-22T01:28:42;9.30;7.90
13673;DHT22;6909;52.202;9.876;2024-03-22T01:31:08;9.30;1.00
13673;DHT22;6909;52.202;9.876;2024-03-22T01:33:35;9.30;1.00
13673;DHT22;6909;52.202;9.876;2024-03-22T01:36:01;9.30;1.00
13673;DHT22;6909;52.202;9.876;2024-03-22T01:38:31;9.30;1.00
13673;DHT22;6909;52.202;9.876;2024-03-22T01:40:57;9.30;1.00
13673;DHT22;6909;52.202;9.876;2024-03-22T01:43:24;9.30;1.00
13673;DHT22;6909;52.202;9.876;2024-03-22T01:45:50;9.30;1.00
13673;DHT22;6909;52.202;9.876;2024-03-22T01:48:16;9.30;17.00
13673;DHT22;6909;52.202;9.876;2024-03-22T01:50:42;9.20;1.00
13673;DHT22;6909;52.202;9.876;2024-03-22T01:53:10;9.30;1.00
13673;DHT22;6909;52.202;9.876;2024-03-22T01:55:37;9.30;1.00
13673;DHT22;6909;52.202;9.876;2024-03-22T01:58:04;9.30;1.00
13673;DHT22;6909;52.202;9.876;2024-03-22T02:00:31;9.30;1.00
13673;DHT22;6909;52.202;9.876;2024-03-22T02:02:57;9.30;1.00
13673;DHT22;6909;52.202;9.876;2024-03-22T02:05:23;9.40;1.00
13673;DHT22;6909;52.202;9.876;2024-03-22T02:07:50;9.40;1.00
13673;DHT22;6909;52.202;9.876;2024-03-22T02:10:16;9.40;1.00
13673;DHT22;6909;52.202;9.876;2024-03-22T02:12:44;9.40;1.00
13673;DHT22;6909;52.202;9.876;2024-03-22T02:15:10;9.40;1.00
13673;DHT22;6909;52.202;9.876;2024-03-22T02:17:37;9.40;1.00
13673;DHT22;6909;52.202;9.876;2024-03-22T02:20:03;9.40;1.00
13673;DHT22;6909;52.202;9.876;2024-03-22T02:22:30;9.40;1.00
13673;DHT22;6909;52.202;9.876;2024-03-22T02:24:57;9.40;1.00
13673;DHT22;6909;52.202;9.876;2024-03-22T02:27:25;9.50;1.00
13673;DHT22;6909;52.202;9.876;2024-03-22T02:29:51;9.50;1.00
13673;DHT22;6909;52.202;9.876;2024-03-22T02:32:17;9.50;99.90
13673;DHT22;6909;52.202;9.876;2024-03-22T02:34:43;9.50;99.90
13673;DHT22;6909;52.202;9.876;2024-03-22T02:37:10;9.50;99.90
13673;DHT22;6909;52.202;9.876;2024-03-22T02:39:35;9.50;99.90
13673;DHT22;6909;52.202;9.876;2024-03-22T02:42:04;9.50;1.00
13673;DHT22;6909;52.202;9.876;2024-03-22T02:44:29;9.50;1.00
13673;DHT22;6909;52.202;9.876;2024-03-22T02:46:56;9.50;99.90
13673;DHT22;6909;52.202;9.876;2024-03-22T02:49:22;9.50;99.90
13673;DHT22;6909;52.202;9.876;2024-03-22T02:51:48;9.60;99.90
13673;DHT22;6909;52.202;9.876;2024-03-22T02:54:14;9.50;99.90
13673;DHT22;6909;52.202;9.876;2024-03-22T02:56:41;9.50;99.90
13673;DHT22;6909;52.202;9.876;2024-03-22T02:59:08;9.50;99.90
13673;DHT22;6909;52.202;9.876;2024-03-22T03:01:34;9.50;99.90
13673;DHT22;6909;52.202;9.876;2024-03-22T03:04:00;9.50;99.90
13673;DHT22;6909;52.202;9.876;2024-03-22T03:06:27;9.60;99.90
13673;DHT22;6909;52.202;9.876;2024-03-22T03:08:52;9.50;99.90
13673;DHT22;6909;52.202;9.876;2024-03-22T03:11:19;9.60;1.00
13673;DHT22;6909;52.202;9.876;2024-03-22T03:13:45;9.60;1.00
13673;DHT22;6909;52.202;9.876;2024-03-22T03:16:13;9.60;1.00
13673;DHT22;6909;52.202;9.876;2024-03-22T03:18:38;9.50;99.90
13673;DHT22;6909;52.202;9.876;2024-03-22T03:21:06;9.50;99.90
13673;DHT22;6909;52.202;9.876;2024-03-22T03:23:32;9.50;99.90
13673;DHT22;6909;52.202;9.876;2024-03-22T03:25:59;9.50;99.90
13673;DHT22;6909;52.202;9.876;2024-03-22T03:28:24;9.50;99.90
13673;DHT22;6909;52.202;9.876;2024-03-22T03:30:53;9.50;99.90
13673;DHT22;6909;52.202;9.876;2024-03-22T03:33:20;9.50;99.90
13673;DHT22;6909;52.202;9.876;2024-03-22T03:35:46;9.60;25.20
13673;DHT22;6909;52.202;9.876;2024-03-22T03:38:12;9.50;1.00
13673;DHT22;6909;52.202;9.876;2024-03-22T03:40:39;9.50;1.00
13673;DHT22;6909;52.202;9.876;2024-03-22T03:43:05;9.50;1.00
13673;DHT22;6909;52.202;9.876;2024-03-22T03:45:31;9.50;1.00
13673;DHT22;6909;52.202;9.876;2024-03-22T03:47:57;9.50;1.00
13673;DHT22;6909;52.202;9.876;2024-03-22T03:50:25;9.50;1.00
13673;DHT22;6909;52.202;9.876;2024-03-22T03:52:51;9.50;1.00
13673;DHT22;6909;52.202;9.876;2024-03-22T03:55:17;9.50;1.00
13673;DHT22;6909;52.202;9.876;2024-03-22T03:57:43;9.40;1.00
13673;DHT22;6909;52.202;9.876;2024-03-22T04:00:10;9.40;1.00
13673;DHT22;6909;52.202;9.876;2024-03-22T04:02:36;9.40;1.00
13673;DHT22;6909;52.202;9.876;2024-03-22T04:05:03;9.40;1.00
13673;DHT22;6909;52.202;9.876;2024-03-22T04:07:30;9.40;1.00
13673;DHT22;6909;52.202;9.876;2024-03-22T04:09:57;9.40;1.00
13673;DHT22;6909;52.202;9.876;2024-03-22T04:12:22;9.40;1.00
13673;DHT22;6909;52.202;9.876;2024-03-22T04:14:49;9.40;1.00
13673;DHT22;6909;52.202;9.876;2024-03-22T04:17:15;9.40;1.00
13673;DHT22;6909;52.202;9.876;2024-03-22T04:19:42;9.40;1.00
13673;DHT22;6909;52.202;9.876;2024-03-22T04:22:07;9.40;1.00
13673;DHT22;6909;52.202;9.876;2024-03-22T04:24:35;9.40;1.00
13673;DHT22;6909;52.202;9.876;2024-03-22T04:27:01;9.40;1.00
13673;DHT22;6909;52.202;9.876;2024-03-22T04:29:28;9.30;1.00
13673;DHT22;6909;52.202;9.876;2024-03-22T04:31:53;9.40;1.00
13673;DHT22;6909;52.202;9.876;2024-03-22T04:34:20;9.30;1.00
13673;DHT22;6909;52.202;9.876;2024-03-22T04:36:46;9.30;1.00
13673;DHT22;6909;52.202;9.876;2024-03-22T04:39:12;9.40;1.00
13673;DHT22;6909;52.202;9.876;2024-03-22T04:41:40;9.40;1.00
13673;DHT22;6909;52.202;9.876;2024-03-22T04:44:07;9.40;1.00
13673;DHT22;6909;52.202;9.876;2024-03-22T04:46:33;9.40;1.00
13673;DHT22;6909;52.202;9.876;2024-03-22T04:48:59;9.50;1.00
13673;DHT22;6909;52.202;9.876;2024-03-22T04:51:25;9.50;1.00
13673;DHT22;6909;52.202;9.876;2024-03-22T04:53:52;9.50;1.00
13673;DHT22;6909;52.202;9.876;2024-03-22T04:56:17;9.50;1.00
13673;DHT22;6909;52.202;9.876;2024-03-22T04:58:45;9.50;1.00
13673;DHT22;6909;52.202;9.876;2024-03-22T05:01:11;9.40;1.00
13673;DHT22;6909;52.202;9.876;2024-03-22T05:03:38;9.50;1.00
13673;DHT22;6909;52.202;9.876;2024-03-22T05:06:04;9.50;1.00
13673;DHT22;6909;52.202;9.876;2024-03-22T05:08:32;9.50;1.00
13673;DHT22;6909;52.202;9.876;2024-03-22T05:10:57;9.50;1.00
13673;DHT22;6909;52.202;9.876;2024-03-22T05:13:24;9.60;1.00
13673;DHT22;6909;52.202;9.876;2024-03-22T05:15:51;9.60;1.00
13673;DHT22;6909;52.202;9.876;2024-03-22T05:18:19;9.60;1.00
13673;DHT22;6909;52.202;9.876;2024-03-22T05:20:44;9.60;1.00
13673;DHT22;6909;52.202;9.876;2024-03-22T05:23:11;9.70;1.00
13673;DHT22;6909;52.202;9.876;2024-03-22T05:25:37;9.70;1.00
13673;DHT22;6909;52.202;9.876;2024-03-22T05:28:03;9.70;1.00
13673;DHT22;6909;52.202;9.876;2024-03-22T05:30:29;9.80;1.00
13673;DHT22;6909;52.202;9.876;2024-03-22T05:32:57;9.70;1.00
13673;DHT22;6909;52.202;9.876;2024-03-22T05:35:23;9.80;1.00
13673;DHT22;6909;52.202;9.876;2024-03-22T05:37:49;9.70;1.00
13673;DHT22;6909;52.202;9.876;2024-03-22T05:40:16;9.80;1.00
13673;DHT22;6909;52.202;9.876;2024-03-22T05:42:43;9.80;1.00
13673;DHT22;6909;52.202;9.876;2024-03-22T05:45:09;9.80;1.00
13673;DHT22;6909;52.202;9.876;2024-03-22T05:47:35;9.80;1.00
13673;DHT22;6909;52.202;9.876;2024-03-22T05:50:05;9.80;1.00
13673;DHT22;6909;52.202;9.876;2024-03-22T05:52:32;9.90;1.00
13673;DHT22;6909;52.202;9.876;2024-03-22T05:54:58;9.90;1.00
13673;DHT22;6909;52.202;9.876;2024-03-22T05:57:24;10.00;1.00
13673;DHT22;6909;52.202;9.876;2024-03-22T05:59:50;10.00;1.00
13673;DHT22;6909;52.202;9.876;2024-03-22T06:02:18;9.90;1.00
13673;DHT22;6909;52.202;9.876;2024-03-22T06:04:44;9.90;1.00
13673;DHT22;6909;52.202;9.876;2024-03-22T06:07:14;10.00;1.00
13673;DHT22;6909;52.202;9.876;2024-03-22T06:09:42;10.10;1.00
13673;DHT22;6909;52.202;9.876;2024-03-22T06:12:13;10.10;1.00
13673;DHT22;6909;52.202;9.876;2024-03-22T06:14:39;10.20;1.00
13673;DHT22;6909;52.202;9.876;2024-03-22T06:17:06;10.20;1.00
13673;DHT22;6909;52.202;9.876;2024-03-22T06:19:32;10.20;1.00
13673;DHT22;6909;52.202;9.876;2024-03-22T06:21:59;10.30;99.90
13673;DHT22;6909;52.202;9.876;2024-03-22T06:24:26;10.30;99.90
13673;DHT22;6909;52.202;9.876;2024-03-22T06:26:52;10.30;99.90
13673;DHT22;6909;52.202;9.876;2024-03-22T06:29:18;10.30;99.90
13673;DHT22;6909;52.202;9.876;2024-03-22T06:31:45;10.30;99.90
13673;DHT22;6909;52.202;9.876;2024-03-22T06:34:10;10.30;99.90
13673;DHT22;6909;52.202;9.876;2024-03-22T06:36:37;10.30;99.90
13673;DHT22;6909;52.202;9.876;2024-03-22T06:39:03;10.40;47.70
13673;DHT22;6909;52.202;9.876;2024-03-22T06:41:34;10.50;1.00
13673;DHT22;6909;52.202;9.876;2024-03-22T06:44:00;10.60;1.00
13673;DHT22;6909;52.202;9.876;2024-03-22T06:46:29;10.70;1.00
13673;DHT22;6909;52.202;9.876;2024-03-22T06:48:55;10.80;1.00
13673;DHT22;6909;52.202;9.876;2024-03-22T06:51:22;10.80;1.00
13673;DHT22;6909;52.202;9.876;2024-03-22T06:53:47;10.90;1.00
13673;DHT22;6909;52.202;9.876;2024-03-22T06:56:14;10.90;99.90
13673;DHT22;6909;52.202;9.876;2024-03-22T06:58:41;11.00;99.90
13673;DHT22;6909;52.202;9.876;2024-03-22T07:01:08;11.00;99.90
13673;DHT22;6909;52.202;9.876;2024-03-22T07:03:34;11.00;74.50
13673;DHT22;6909;52.202;9.876;2024-03-22T07:06:01;11.00;1.00
13673;DHT22;6909;52.202;9.876;2024-03-22T07:08:26;11.00;1.00
13673;DHT22;6909;52.202;9.876;2024-03-22T07:10:53;11.00;1.00
13673;DHT22;6909;52.202;9.876;2024-03-22T07:13:19;11.00;1.00
13673;DHT22;6909;52.202;9.876;2024-03-22T07:15:48;11.10;1.00
13673;DHT22;6909;52.202;9.876;2024-03-22T07:18:14;11.10;1.00
13673;DHT22;6909;52.202;9.876;2024-03-22T07:20:41;11.10;1.00
13673;DHT22;6909;52.202;9.876;2024-03-22T07:23:07;11.10;1.00
13673;DHT22;6909;52.202;9.876;2024-03-22T07:25:34;11.20;1.00
13673;DHT22;6909;52.202;9.876;2024-03-22T07:27:59;11.20;1.00
13673;DHT22;6909;52.202;9.876;2024-03-22T07:30:26;11.30;1.00
13673;DHT22;6909;52.202;9.876;2024-03-22T07:32:53;11.40;1.00
13673;DHT22;6909;52.202;9.876;2024-03-22T07:35:19;11.50;1.00
13673;DHT22;6909;52.202;9.876;2024-03-22T07:37:45;11.50;1.00
13673;DHT22;6909;52.202;9.876;2024-03-22T07:40:12;11.60;1.00
13673;DHT22;6909;52.202;9.876;2024-03-22T07:42:37;11.60;99.90
13673;DHT22;6909;52.202;9.876;2024-03-22T07:45:04;11.60;99.90
13673;DHT22;6909;52.202;9.876;2024-03-22T07:47:30;11.80;99.90
13673;DHT22;6909;52.202;9.876;2024-03-22T07:49:58;11.90;99.90
13673;DHT22;6909;52.202;9.876;2024-03-22T07:52:24;11.90;99.90
13673;DHT22;6909;52.202;9.876;2024-03-22T07:54:51;12.20;99.90
13673;DHT22;6909;52.202;9.876;2024-03-22T07:57:16;12.30;99.90
13673;DHT22;6909;52.202;9.876;2024-03-22T07:59:43;12.30;99.90
13673;DHT22;6909;52.202;9.876;2024-03-22T08:02:09;12.30;66.10
13673;DHT22;6909;52.202;9.876;2024-03-22T08:04:36;12.30;45.60
13673;DHT22;6909;52.202;9.876;2024-03-22T08:07:03;12.30;50.30
13673;DHT22;6909;52.202;9.876;2024-03-22T08:09:30;12.30;1.00
13673;DHT22;6909;52.202;9.876;2024-03-22T08:11:58;12.30;1.00
13673;DHT22;6909;52.202;9.876;2024-03-22T08:14:25;12.20;21.00
13673;DHT22;6909;52.202;9.876;2024-03-22T08:16:50;12.20;7.20
13673;DHT22;6909;52.202;9.876;2024-03-22T08:19:17;12.30;37.20
13673;DHT22;6909;52.202;9.876;2024-03-22T08:21:42;12.40;1.00
13673;DHT22;6909;52.202;9.876;2024-03-22T08:24:10;12.40;1.00
13673;DHT22;6909;52.202;9.876;2024-03-22T08:26:36;12.30;1.00
13673;DHT22;6909;52.202;9.876;2024-03-22T08:29:03;12.20;1.00
13673;DHT22;6909;52.202;9.876;2024-03-22T08:31:28;12.20;1.00
13673;DHT22;6909;52.202;9.876;2024-03-22T08:33:55;12.20;1.00
13673;DHT22;6909;52.202;9.876;2024-03-22T08:36:21;12.10;1.00
13673;DHT22;6909;52.202;9.876;2024-03-22T08:38:47;12.10;1.00
13673;DHT22;6909;52.202;9.876;2024-03-22T08:41:14;12.20;1.00
13673;DHT22;6909;52.202;9.876;2024-03-22T08:43:41;12.20;1.00
13673;DHT22;6909;52.202;9.876;2024-03-22T08:46:07;12.20;1.00
13673;DHT22;6909;52.202;9.876;2024-03-22T08:48:33;12.20;1.00
13673;DHT22;6909;52.202;9.876;2024-03-22T08:50:59;12.20;1.00
13673;DHT22;6909;52.202;9.876;2024-03-22T08:53:26;12.20;1.00
13673;DHT22;6909;52.202;9.876;2024-03-22T08:55:51;12.20;1.00
13673;DHT22;6909;52.202;9.876;2024-03-22T08:58:19;12.20;1.00
13673;DHT22;6909;52.202;9.876;2024-03-22T09:00:45;12.30;1.00
13673;DHT22;6909;52.202;9.876;2024-03-22T09:03:11;12.30;1.00
13673;DHT22;6909;52.202;9.876;2024-03-22T09:05:37;12.40;1.00
13673;DHT22;6909;52.202;9.876;2024-03-22T09:08:04;12.50;1.00
13673;DHT22;6909;52.202;9.876;2024-03-22T09:10:30;12.50;1.00
13673;DHT22;6909;52.202;9.876;2024-03-22T09:12:57;12.50;1.00
13673;DHT22;6909;52.202;9.876;2024-03-22T09:15:24;12.50;1.00
13673;DHT22;6909;52.202;9.876;2024-03-22T09:17:51;12.50;1.00
13673;DHT22;6909;52.202;9.876;2024-03-22T09:20:17;12.60;1.00
13673;DHT22;6909;52.202;9.876;2024-03-22T09:22:44;12.60;1.00
13673;DHT22;6909;52.202;9.876;2024-03-22T09:25:10;12.70;1.00
13673;DHT22;6909;52.202;9.876;2024-03-22T09:27:36;12.80;1.00
13673;DHT22;6909;52.202;9.876;2024-03-22T09:30:03;12.80;1.00
13673;DHT22;6909;52.202;9.876;2024-03-22T09:32:31;12.90;1.00
13673;DHT22;6909;52.202;9.876;2024-03-22T09:34:57;12.90;1.00
13673;DHT22;6909;52.202;9.876;2024-03-22T09:37:23;12.90;1.00
13673;DHT22;6909;52.202;9.876;2024-03-22T09:39:49;12.90;1.00
13673;DHT22;6909;52.202;9.876;2024-03-22T09:42:16;12.90;99.90
13673;DHT22;6909;52.202;9.876;2024-03-22T09:44:46;12.90;99.90
13673;DHT22;6909;52.202;9.876;2024-03-22T09:47:15;12.90;99.90
13673;DHT22;6909;52.202;9.876;2024-03-22T09:49:42;12.90;99.90
13673;DHT22;6909;52.202;9.876;2024-03-22T09:52:12;13.00;99.90
13673;DHT22;6909;52.202;9.876;2024-03-22T09:54:38;13.00;99.90
13673;DHT22;6909;52.202;9.876;2024-03-22T09:57:05;13.00;99.90
13673;DHT22;6909;52.202;9.876;2024-03-22T09:59:32;12.90;99.90
13673;DHT22;6909;52.202;9.876;2024-03-22T10:01:59;13.10;99.90
13673;DHT22;6909;52.202;9.876;2024-03-22T10:04:26;13.10;99.90
13673;DHT22;6909;52.202;9.876;2024-03-22T10:06:54;13.10;99.90
13673;DHT22;6909;52.202;9.876;2024-03-22T10:09:28;13.10;99.90
13673;DHT22;6909;52.202;9.876;2024-03-22T10:11:55;13.00;99.90
13673;DHT22;6909;52.202;9.876;2024-03-22T10:14:21;13.00;99.90
13673;DHT22;6909;52.202;9.876;2024-03-22T10:16:50;13.10;95.80
13673;DHT22;6909;52.202;9.876;2024-03-22T10:19:18;13.00;92.60
13673;DHT22;6909;52.202;9.876;2024-03-22T10:21:45;13.10;60.00
13673;DHT22;6909;52.202;9.876;2024-03-22T10:24:12;13.10;12.50
13673;DHT22;6909;52.202;9.876;2024-03-22T10:26:38;13.20;1.00
13673;DHT22;6909;52.202;9.876;2024-03-22T10:29:05;13.20;1.00
13673;DHT22;6909;52.202;9.876;2024-03-22T10:31:34;13.30;1.00
13673;DHT22;6909;52.202;9.876;2024-03-22T10:34:02;13.30;1.00
13673;DHT22;6909;52.202;9.876;2024-03-22T10:36:31;13.30;1.00
13673;DHT22;6909;52.202;9.876;2024-03-22T10:38:59;13.40;1.00
13673;DHT22;6909;52.202;9.876;2024-03-22T10:41:28;13.40;1.00
13673;DHT22;6909;52.202;9.876;2024-03-22T10:43:53;13.40;1.00
13673;DHT22;6909;52.202;9.876;2024-03-22T10:46:20;13.40;1.00
13673;DHT22;6909;52.202;9.876;2024-03-22T10:48:46;13.40;1.00
13673;DHT22;6909;52.202;9.876;2024-03-22T10:51:14;13.30;1.00
13673;DHT22;6909;52.202;9.876;2024-03-22T10:53:41;13.20;1.00
13673;DHT22;6909;52.202;9.876;2024-03-22T10:56:08;13.20;1.00
13673;DHT22;6909;52.202;9.876;2024-03-22T10:58:39;13.10;1.00
13673;DHT22;6909;52.202;9.876;2024-03-22T11:01:21;12.80;99.90
13673;DHT22;6909;52.202;9.876;2024-03-22T11:03:47;12.70;1.00
13673;DHT22;6909;52.202;9.876;2024-03-22T11:06:18;12.60;1.00
13673;DHT22;6909;52.202;9.876;2024-03-22T11:08:43;12.60;1.00
13673;DHT22;6909;52.202;9.876;2024-03-22T11:11:17;12.50;1.00
13673;DHT22;6909;52.202;9.876;2024-03-22T11:13:47;12.40;1.00
13673;DHT22;6909;52.202;9.876;2024-03-22T11:16:14;12.40;1.00
13673;DHT22;6909;52.202;9.876;2024-03-22T11:18:40;12.40;1.00
13673;DHT22;6909;52.202;9.876;2024-03-22T11:21:07;12.30;1.00
13673;DHT22;6909;52.202;9.876;2024-03-22T11:23:34;12.40;1.00
13673;DHT22;6909;52.202;9.876;2024-03-22T11:26:01;12.40;81.50
13673;DHT22;6909;52.202;9.876;2024-03-22T11:28:27;12.50;15.90
13673;DHT22;6909;52.202;9.876;2024-03-22T11:30:55;12.60;12.80
13673;DHT22;6909;52.202;9.876;2024-03-22T11:33:21;12.60;80.00
13673;DHT22;6909;52.202;9.876;2024-03-22T11:35:47;12.70;1.00
13673;DHT22;6909;52.202;9.876;2024-03-22T11:38:15;12.70;1.00
13673;DHT22;6909;52.202;9.876;2024-03-22T11:40:42;12.80;1.00
13673;DHT22;6909;52.202;9.876;2024-03-22T11:43:09;12.90;1.00
13673;DHT22;6909;52.202;9.876;2024-03-22T11:45:36;12.90;1.00
13673;DHT22;6909;52.202;9.876;2024-03-22T11:48:06;12.80;1.00
13673;DHT22;6909;52.202;9.876;2024-03-22T11:50:32;12.90;1.00
13673;DHT22;6909;52.202;9.876;2024-03-22T11:52:58;12.90;99.90
13673;DHT22;6909;52.202;9.876;2024-03-22T11:55:27;13.00;1.00
13673;DHT22;6909;52.202;9.876;2024-03-22T11:57:53;13.00;1.00
13673;DHT22;6909;52.202;9.876;2024-03-22T12:00:19;13.00;99.90
13673;DHT22;6909;52.202;9.876;2024-03-22T12:02:45;13.00;99.90
13673;DHT22;6909;52.202;9.876;2024-03-22T12:05:14;12.90;93.50
13673;DHT22;6909;52.202;9.876;2024-03-22T12:07:39;13.00;99.90
13673;DHT22;6909;52.202;9.876;2024-03-22T12:10:07;12.90;91.10
13673;DHT22;6909;52.202;9.876;2024-03-22T12:12:33;12.90;97.30
13673;DHT22;6909;52.202;9.876;2024-03-22T12:14:59;12.90;99.90
13673;DHT22;6909;52.202;9.876;2024-03-22T12:17:25;12.90;99.90
13673;DHT22;6909;52.202;9.876;2024-03-22T12:19:53;12.90;99.90
13673;DHT22;6909;52.202;9.876;2024-03-22T12:22:20;12.90;99.90
13673;DHT22;6909;52.202;9.876;2024-03-22T12:24:46;12.90;99.90
13673;DHT22;6909;52.202;9.876;2024-03-22T12:27:12;12.80;49.10
13673;DHT22;6909;52.202;9.876;2024-03-22T12:29:39;12.80;14.40
13673;DHT22;6909;52.202;9.876;2024-03-22T12:32:05;12.90;1.00
13673;DHT22;6909;52.202;9.876;2024-03-22T12:34:32;12.90;1.00
13673;DHT22;6909;52.202;9.876;2024-03-22T12:36:58;12.90;1.00
13673;DHT22;6909;52.202;9.876;2024-03-22T12:39:27;12.90;24.70
13673;DHT22;6909;52.202;9.876;2024-03-22T12:41:52;12.90;1.00
13673;DHT22;6909;52.202;9.876;2024-03-22T12:44:19;13.00;1.00
13673;DHT22;6909;52.202;9.876;2024-03-22T12:46:45;12.90;1.00
13673;DHT22;6909;52.202;9.876;2024-03-22T12:49:12;12.90;1.00
13673;DHT22;6909;52.202;9.876;2024-03-22T12:51:38;12.90;1.00
13673;DHT22;6909;52.202;9.876;2024-03-22T12:54:05;12.90;1.00
13673;DHT22;6909;52.202;9.876;2024-03-22T12:56:32;13.00;1.00
13673;DHT22;6909;52.202;9.876;2024-03-22T12:58:59;13.00;1.00
13673;DHT22;6909;52.202;9.876;2024-03-22T13:01:25;13.00;1.00
13673;DHT22;6909;52.202;9.876;2024-03-22T13:03:51;13.00;5.60
13673;DHT22;6909;52.202;9.876;2024-03-22T13:06:17;13.00;28.80
13673;DHT22;6909;52.202;9.876;2024-03-22T13:08:44;13.00;97.80
13673;DHT22;6909;52.202;9.876;2024-03-22T13:11:09;13.00;64.80
13673;DHT22;6909;52.202;9.876;2024-03-22T13:13:37;13.10;99.90
13673;DHT22;6909;52.202;9.876;2024-03-22T13:16:04;13.20;99.90
13673;DHT22;6909;52.202;9.876;2024-03-22T13:18:32;13.10;99.90
13673;DHT22;6909;52.202;9.876;2024-03-22T13:20:58;13.00;99.90
13673;DHT22;6909;52.202;9.876;2024-03-22T13:23:24;13.00;99.90
13673;DHT22;6909;52.202;9.876;2024-03-22T13:25:50;13.00;1.00
13673;DHT22;6909;52.202;9.876;2024-03-22T13:28:17;13.00;1.00
13673;DHT22;6909;52.202;9.876;2024-03-22T13:30:49;13.00;1.00
13673;DHT22;6909;52.202;9.876;2024-03-22T13:33:16;13.00;1.00
13673;DHT22;6909;52.202;9.876;2024-03-22T13:35:43;13.00;1.00
13673;DHT22;6909;52.202;9.876;2024-03-22T13:38:11;13.10;1.00
13673;DHT22;6909;52.202;9.876;2024-03-22T13:40:38;13.10;1.00
13673;DHT22;6909;52.202;9.876;2024-03-22T13:43:06;13.00;1.00
13673;DHT22;6909;52.202;9.876;2024-03-22T13:45:32;13.00;1.00
13673;DHT22;6909;52.202;9.876;2024-03-22T13:48:00;12.90;1.00
13673;DHT22;6909;52.202;9.876;2024-03-22T13:50:35;12.80;99.90
13673;DHT22;6909;52.202;9.876;2024-03-22T13:53:01;12.70;99.90
13673;DHT22;6909;52.202;9.876;2024-03-22T13:55:27;12.70;99.90
13673;DHT22;6909;52.202;9.876;2024-03-22T13:57:54;12.60;1.00
13673;DHT22;6909;52.202;9.876;2024-03-22T14:00:20;12.60;1.00
13673;DHT22;6909;52.202;9.876;2024-03-22T14:02:47;12.60;1.00
13673;DHT22;6909;52.202;9.876;2024-03-22T14:05:18;12.50;96.40
13673;DHT22;6909;52.202;9.876;2024-03-22T14:07:45;12.40;99.90
13673;DHT22;6909;52.202;9.876;2024-03-22T14:10:11;12.40;1.00
13673;DHT22;6909;52.202;9.876;2024-03-22T14:12:38;12.30;1.00
13673;DHT22;6909;52.202;9.876;2024-03-22T14:15:04;12.30;99.90
13673;DHT22;6909;52.202;9.876;2024-03-22T14:17:32;12.20;1.00
13673;DHT22;6909;52.202;9.876;2024-03-22T14:19:58;12.20;1.00
13673;DHT22;6909;52.202;9.876;2024-03-22T14:22:26;12.10;29.30
13673;DHT22;6909;52.202;9.876;2024-03-22T14:24:52;12.10;99.90
13673;DHT22;6909;52.202;9.876;2024-03-22T14:27:18;12.00;1.00
13673;DHT22;6909;52.202;9.876;2024-03-22T14:29:46;12.00;71.30
13673;DHT22;6909;52.202;9.876;2024-03-22T14:32:13;11.90;1.00
13673;DHT22;6909;52.202;9.876;2024-03-22T14:34:39;11.80;16.90
13673;DHT22;6909;52.202;9.876;2024-03-22T14:37:06;11.90;99.90
13673;DHT22;6909;52.202;9.876;2024-03-22T14:39:33;11.80;99.90
13673;DHT22;6909;52.202;9.876;2024-03-22T14:42:00;11.80;1.00
13673;DHT22;6909;52.202;9.876;2024-03-22T14:44:25;11.70;1.00
13673;DHT22;6909;52.202;9.876;2024-03-22T14:46:52;11.70;1.00
13673;DHT22;6909;52.202;9.876;2024-03-22T14:49:19;11.70;99.90
13673;DHT22;6909;52.202;9.876;2024-03-22T14:51:46;11.70;99.90
13673;DHT22;6909;52.202;9.876;2024-03-22T14:54:11;11.60;1.00
13673;DHT22;6909;52.202;9.876;2024-03-22T14:56:39;11.50;1.00
13673;DHT22;6909;52.202;9.876;2024-03-22T14:59:06;11.50;1.00
13673;DHT22;6909;52.202;9.876;2024-03-22T15:01:33;11.40;90.50
13673;DHT22;6909;52.202;9.876;2024-03-22T15:03:59;11.30;99.90
13673;DHT22;6909;52.202;9.876;2024-03-22T15:06:25;11.30;1.00
13673;DHT22;6909;52.202;9.876;2024-03-22T15:08:51;11.30;1.00
13673;DHT22;6909;52.202;9.876;2024-03-22T15:11:18;11.30;99.90
13673;DHT22;6909;52.202;9.876;2024-03-22T15:13:45;11.20;52.50
13673;DHT22;6909;52.202;9.876;2024-03-22T15:16:11;11.10;99.90
13673;DHT22;6909;52.202;9.876;2024-03-22T15:18:37;11.10;1.00
13673;DHT22;6909;52.202;9.876;2024-03-22T15:21:04;11.10;1.00
13673;DHT22;6909;52.202;9.876;2024-03-22T15:23:30;11.00;99.90
13673;DHT22;6909;52.202;9.876;2024-03-22T15:25:57;11.00;1.00
13673;DHT22;6909;52.202;9.876;2024-03-22T15:28:23;11.00;1.00
13673;DHT22;6909;52.202;9.876;2024-03-22T15:30:50;11.00;99.90
13673;DHT22;6909;52.202;9.876;2024-03-22T15:33:17;10.90;99.90
13673;DHT22;6909;52.202;9.876;2024-03-22T15:35:43;10.90;1.00
13673;DHT22;6909;52.202;9.876;2024-03-22T15:38:12;10.80;1.00
13673;DHT22;6909;52.202;9.876;2024-03-22T15:40:39;10.80;1.00
13673;DHT22;6909;52.202;9.876;2024-03-22T15:43:05;10.80;94.10
13673;DHT22;6909;52.202;9.876;2024-03-22T15:45:33;10.80;99.90
13673;DHT22;6909;52.202;9.876;2024-03-22T15:48:00;10.70;99.90
13673;DHT22;6909;52.202;9.876;2024-03-22T15:50:27;10.70;99.90
13673;DHT22;6909;52.202;9.876;2024-03-22T15:52:53;10.70;99.90
13673;DHT22;6909;52.202;9.876;2024-03-22T15:55:20;10.60;99.90
13673;DHT22;6909;52.202;9.876;2024-03-22T15:57:45;10.50;99.90